Time;durP1;ratioP1;P1;durP2;ratioP2;P2;SDS_P1;SDS_P2;PMS_P1;PMS_P2;Temp;Humidity;BMP_temperature;BMP_pressure;BME280_temperature;BME280_humidity;BME280_pressure;Samples;Min_cycle;Max_cycle;Signal;HPM_P1;HPM_P2
2023/12/15 00:01:00;;;;;;;3.23;3.13;;;;;;;11.24;100.00;-6934.16;6186787;23;20177;-63
2023/12/15 00:03:27;;;;;;;3.73;3.33;;;;;;;11.18;100.00;-6933.78;6186968;23;20521;-63
2023/12/15 00:05:55;;;;;;;3.73;3.53;;;;;;;11.11;100.00;-8528.53;6186726;23;20162;-62
2023/12/15 00:08:23;;;;;;;3.97;3.80;;;;;;;10.88;100.00;-9801.72;6186633;23;20162;-62
2023/12/15 00:10:49;;;;;;;3.50;3.40;;;;;;;10.95;100.00;-10121.28;6187307;23;20162;-62
2023/12/15 00:13:17;;;;;;;4.10;4.00;;;;;;;10.94;100.00;-9483.66;6186669;23;20158;-63
2023/12/15 00:15:43;;;;;;;4.33;4.10;;;;;;;10.95;100.00;-7889.38;6186745;23;20158;-62
2023/12/15 00:18:12;;;;;;;4.23;4.03;;;;;;;10.94;100.00;-6294.19;6184766;23;20164;-61
2023/12/15 00:20:39;;;;;;;4.27;4.07;;;;;;;10.85;100.00;-4698.09;6184928;23;20216;-62
2023/12/15 00:23:06;;;;;;;4.23;4.03;;;;;;;10.97;100.00;-4059.81;6184985;23;20186;-62
2023/12/15 00:25:33;;;;;;;5.10;4.47;;;;;;;10.89;100.00;-2143.41;6185369;23;20163;-61
2023/12/15 00:28:00;;;;;;;4.70;4.50;;;;;;;10.88;100.00;733.09;6185473;23;20509;-63
2023/12/15 00:30:27;;;;;;;4.53;4.33;;;;;;;10.82;100.00;2971.50;6185623;23;20229;-62
2023/12/15 00:32:54;;;;;;;4.43;4.23;;;;;;;10.81;100.00;4891.63;6185318;23;20209;-62
2023/12/15 00:35:22;;;;;;;4.63;4.33;;;;;;;10.84;100.00;7133.75;6185702;23;20162;-61
2023/12/15 00:37:49;;;;;;;4.97;4.77;;;;;;;10.96;100.00;9058.75;6185625;23;20471;-62
2023/12/15 00:40:16;;;;;;;4.90;4.70;;;;;;;10.70;100.00;12720.91;6186621;23;20162;-62
2023/12/15 00:42:43;;;;;;;4.97;4.77;;;;;;;10.87;100.00;12855.84;6185150;23;20506;-62
2023/12/15 00:45:11;;;;;;;4.80;4.60;;;;;;;10.79;100.00;14418.28;6185494;23;20163;-63
2023/12/15 00:47:38;;;;;;;5.37;5.17;;;;;;;10.82;100.00;15367.38;6185357;23;20217;-62
2023/12/15 00:50:06;;;;;;;5.57;5.27;;;;;;;10.82;100.00;14002.81;6185011;23;20158;-63
2023/12/15 00:52:34;;;;;;;5.87;5.50;;;;;;;10.68;100.00;14347.41;6185202;23;20198;-62
2023/12/15 00:55:02;;;;;;;6.27;5.87;;;;;;;10.75;100.00;15410.41;6184932;23;20167;-62
2023/12/15 00:57:29;;;;;;;5.97;5.77;;;;;;;10.57;100.00;14818.28;6184962;23;20221;-63
2023/12/15 00:59:56;;;;;;;6.20;5.90;;;;;;;10.62;100.00;14142.59;6184731;23;20177;-61
2023/12/15 01:02:24;;;;;;;5.80;5.60;;;;;;;10.53;100.00;16387.25;6185019;23;20178;-62
2023/12/15 01:04:51;;;;;;;6.10;5.80;;;;;;;10.65;100.00;14080.91;6185089;23;20221;-62
2023/12/15 01:07:18;;;;;;;5.97;5.77;;;;;;;10.61;100.00;16329.44;6184688;23;20162;-62
2023/12/15 01:09:46;;;;;;;6.20;5.90;;;;;;;10.52;100.00;17525.81;6184928;23;20162;-62
2023/12/15 01:12:14;;;;;;;6.47;6.03;;;;;;;10.61;100.00;17573.88;6185200;23;20158;-61
2023/12/15 01:14:41;;;;;;;6.33;6.03;;;;;;;10.53;100.00;18828.97;6185479;23;20163;-63
2023/12/15 01:17:08;;;;;;;6.83;6.43;;;;;;;10.40;100.00;20940.78;6184558;23;20216;-63
2023/12/15 01:19:35;;;;;;;7.10;6.80;;;;;;;10.44;100.00;21449.56;6184661;23;20193;-62
2023/12/15 01:22:02;;;;;;;7.53;7.13;;;;;;;10.23;100.00;20125.72;6185242;23;20681;-62
2023/12/15 01:24:29;;;;;;;8.33;7.90;;;;;;;10.34;100.00;20508.84;6184570;23;20162;-62
2023/12/15 01:26:57;;;;;;;8.23;7.73;;;;;;;10.28;100.00;20998.63;6185170;23;20166;-62
2023/12/15 01:29:24;;;;;;;8.00;7.60;;;;;;;10.12;100.00;20758.84;6185046;23;20158;-62
2023/12/15 01:31:52;;;;;;;8.93;8.33;;;;;;;10.18;100.00;19983.25;6184310;23;20208;-63
2023/12/15 01:34:19;;;;;;;9.53;8.93;;;;;;;10.22;100.00;19429.91;6184755;23;20193;-62
2023/12/15 01:36:46;;;;;;;9.43;8.83;;;;;;;10.13;100.00;20036.56;6184367;23;20170;-63
2023/12/15 01:39:13;;;;;;;8.33;7.93;;;;;;;10.22;100.00;21249.88;6184716;23;20556;-63
2023/12/15 01:41:40;;;;;;;9.17;8.57;;;;;;;10.20;100.00;21166.41;6184930;23;20656;-62
2023/12/15 01:44:09;;;;;;;9.70;8.90;;;;;;;10.18;100.00;21600.00;6185499;23;20232;-62
2023/12/15 01:46:36;;;;;;;9.67;9.07;;;;;;;10.17;100.00;21456.47;6184703;23;20197;-61
2023/12/15 01:49:03;;;;;;;9.90;9.40;;;;;;;10.22;100.00;20973.88;6184901;23;20166;-63
2023/12/15 01:51:30;;;;;;;9.53;9.00;;;;;;;10.22;100.00;21481.09;6185361;23;20174;-63
2023/12/15 01:53:57;;;;;;;9.80;9.20;;;;;;;10.28;100.00;21528.69;6184312;23;20202;-62
2023/12/15 01:56:24;;;;;;;9.73;9.23;;;;;;;10.32;100.00;22130.44;6184917;23;20162;-62
2023/12/15 01:58:51;;;;;;;10.33;9.63;;;;;;;10.29;100.00;22744.88;6184900;23;20159;-63
2023/12/15 02:01:19;;;;;;;9.93;9.33;;;;;;;10.08;100.00;23605.06;6184542;23;20166;-63
2023/12/15 02:03:46;;;;;;;10.27;9.67;;;;;;;10.32;100.00;23052.69;6184564;23;20193;-62
2023/12/15 02:06:13;;;;;;;10.27;9.77;;;;;;;10.29;100.00;24833.09;6184509;23;20213;-61
2023/12/15 02:08:44;;;;;;;9.80;9.30;;;;;;;10.38;100.00;23271.38;6184405;23;20590;-63
2023/12/15 02:11:11;;;;;;;9.77;8.93;;;;;;;10.39;100.00;23010.47;6184303;23;20549;-62
2023/12/15 02:13:39;;;;;;;10.33;9.73;;;;;;;10.36;100.00;23657.56;6184496;23;20166;-63
2023/12/15 02:16:07;;;;;;;10.07;9.40;;;;;;;10.42;100.00;26295.25;6184647;23;20633;-63
2023/12/15 02:18:35;;;;;;;10.50;9.90;;;;;;;10.33;100.00;24324.59;6184567;23;20162;-62
2023/12/15 02:21:02;;;;;;;10.73;10.07;;;;;;;10.31;100.00;23007.03;6184479;23;20553;-63
2023/12/15 02:23:31;;;;;;;11.77;10.77;;;;;;;10.26;100.00;22715.97;6184239;23;20253;-62
2023/12/15 02:25:58;;;;;;;10.93;10.17;;;;;;;10.38;100.00;22972.34;6184436;23;20158;-62
2023/12/15 02:28:25;;;;;;;11.20;10.60;;;;;;;10.48;100.00;22441.13;6184452;23;20162;-62
2023/12/15 02:30:52;;;;;;;11.70;10.90;;;;;;;10.40;100.00;23779.97;6184621;23;20162;-62
2023/12/15 02:33:19;;;;;;;11.67;10.90;;;;;;;10.40;100.00;24000.94;6183929;23;20157;-63
2023/12/15 02:35:47;;;;;;;11.13;10.17;;;;;;;10.38;100.00;23686.09;6184707;23;20162;-62
2023/12/15 02:38:18;;;;;;;11.73;10.83;;;;;;;10.50;100.00;21160.75;6184290;23;20593;-63
2023/12/15 02:40:46;;;;;;;11.77;10.87;;;;;;;10.46;100.00;21219.25;6183485;23;20221;-63
2023/12/15 02:43:13;;;;;;;10.77;10.07;;;;;;;10.28;100.00;21571.41;6184114;23;20178;-63
2023/12/15 02:45:40;;;;;;;12.97;11.87;;;;;;;10.34;100.00;21822.28;6183590;23;20197;-62
2023/12/15 02:48:07;;;;;;;14.10;12.90;;;;;;;10.34;100.00;20335.59;6184263;23;20166;-62
2023/12/15 02:50:34;;;;;;;14.70;13.40;;;;;;;10.33;100.00;20395.66;6183980;23;20166;-63
2023/12/15 02:53:01;;;;;;;16.93;13.63;;;;;;;10.30;100.00;18208.28;6183915;23;20229;-62
2023/12/15 02:55:29;;;;;;;16.40;14.57;;;;;;;10.22;100.00;19419.88;6184019;23;20162;-62
2023/12/15 02:57:56;;;;;;;16.93;15.30;;;;;;;10.22;100.00;17229.75;6184308;23;20545;-62
2023/12/15 03:00:23;;;;;;;17.07;15.37;;;;;;;10.28;100.00;14945.25;6184077;23;20181;-62
2023/12/15 03:02:50;;;;;;;16.13;14.60;;;;;;;10.21;100.00;11286.09;6184143;23;20648;-62
2023/12/15 03:05:17;;;;;;;17.10;15.50;;;;;;;10.20;100.00;10004.41;6183976;23;20620;-62
2023/12/15 03:07:44;;;;;;;19.90;16.50;;;;;;;10.25;100.00;8084.09;6184126;23;20162;-62
2023/12/15 03:10:11;;;;;;;20.57;15.97;;;;;;;10.26;100.00;7444.13;6183436;23;20225;-62
2023/12/15 03:12:39;;;;;;;17.53;15.80;;;;;;;10.32;100.00;5844.97;6183666;23;20245;-63
2023/12/15 03:15:08;;;;;;;17.53;15.73;;;;;;;10.38;100.00;5205.94;6183770;23;20257;-62
2023/12/15 03:17:35;;;;;;;17.23;15.47;;;;;;;10.44;100.00;4886.75;6183751;23;20162;-62
2023/12/15 03:20:03;;;;;;;17.53;14.87;;;;;;;10.42;100.00;4246.69;6184095;23;20162;-62
2023/12/15 03:22:31;;;;;;;17.93;16.17;;;;;;;10.37;100.00;2967.06;6184141;23;20154;-62
2023/12/15 03:24:58;;;;;;;17.83;15.93;;;;;;;10.27;100.00;2326.81;6184179;23;20555;-61
2023/12/15 03:27:25;;;;;;;16.50;14.53;;;;;;;10.34;100.00;1368.69;6184045;23;20161;-62
2023/12/15 03:29:52;;;;;;;14.80;13.50;;;;;;;10.34;100.00;2327.41;6183665;23;20170;-62
2023/12/15 03:32:21;;;;;;;14.53;13.03;;;;;;;10.42;100.00;1049.69;6184107;23;20597;-62
2023/12/15 03:34:48;;;;;;;14.30;13.10;;;;;;;10.45;100.00;91.38;6183924;23;20159;-64
2023/12/15 03:37:15;;;;;;;14.97;13.63;;;;;;;10.38;100.00;91.00;6184245;23;20163;-62
2023/12/15 03:39:42;;;;;;;14.23;12.70;;;;;;;10.39;100.00;-228.34;6183733;23;20163;-62
2023/12/15 03:42:09;;;;;;;14.93;13.53;;;;;;;10.20;100.00;-548.59;6183619;23;20225;-62
2023/12/15 03:44:39;;;;;;;18.20;15.93;;;;;;;10.32;100.00;410.13;6183689;23;20179;-62
2023/12/15 03:47:06;;;;;;;17.93;16.07;;;;;;;10.26;100.00;1687.63;6183928;23;20545;-62
2023/12/15 03:49:35;;;;;;;19.80;16.90;;;;;;;10.07;100.00;4562.22;6183486;23;20155;-62
2023/12/15 03:52:02;;;;;;;23.23;17.13;;;;;;;9.77;100.00;3599.91;6185076;23;20171;-62
2023/12/15 03:54:29;;;;;;;20.57;16.90;;;;;;;9.67;100.00;87.25;6185689;23;20158;-62
2023/12/15 03:56:56;;;;;;;21.23;16.93;;;;;;;9.61;100.00;-1188.97;6185749;23;20657;-62
2023/12/15 03:59:24;;;;;;;20.27;16.47;;;;;;;9.22;100.00;-233.97;6185585;23;20162;-62
2023/12/15 04:01:51;;;;;;;20.47;17.10;;;;;;;9.09;100.00;1359.56;6185120;23;20162;-63
2023/12/15 04:04:18;;;;;;;28.33;16.73;;;;;;;9.34;100.00;2318.53;6185671;23;20190;-63
2023/12/15 04:06:47;;;;;;;21.27;16.73;;;;;;;9.04;100.00;5187.75;6186317;23;20162;-63
2023/12/15 04:09:14;;;;;;;18.23;16.33;;;;;;;9.43;100.00;6471.00;6185340;23;20213;-62
2023/12/15 04:11:41;;;;;;;26.33;16.93;;;;;;;9.37;100.00;6789.69;6185783;23;20220;-62
2023/12/15 04:14:08;;;;;;;16.27;14.60;;;;;;;8.96;100.00;9658.44;6186088;23;20471;-63
2023/12/15 04:16:35;;;;;;;17.30;15.40;;;;;;;9.11;100.00;7104.91;6185302;23;20220;-62
2023/12/15 04:19:02;;;;;;;15.63;14.20;;;;;;;9.25;100.00;7107.25;6185458;23;20545;-63
2023/12/15 04:21:29;;;;;;;15.90;14.30;;;;;;;9.23;100.00;8065.63;6185518;23;20248;-63
2023/12/15 04:23:58;;;;;;;17.97;15.77;;;;;;;9.22;100.00;7106.66;6185664;23;20186;-63
2023/12/15 04:26:25;;;;;;;13.30;12.27;;;;;;;8.88;100.00;9017.75;6184974;23;20170;-63
2023/12/15 04:28:53;;;;;;;15.33;13.77;;;;;;;8.88;100.00;6781.81;6185579;23;20162;-63
2023/12/15 04:31:20;;;;;;;16.27;13.93;;;;;;;9.08;100.00;5826.94;6185408;23;20197;-62
2023/12/15 04:33:47;;;;;;;14.20;11.83;;;;;;;9.07;100.00;7104.25;6185095;23;20154;-62
2023/12/15 04:36:14;;;;;;;13.97;12.60;;;;;;;8.82;100.00;9016.44;6185748;23;20236;-62
2023/12/15 04:38:41;;;;;;;12.87;11.63;;;;;;;8.98;100.00;9019.72;6184836;23;20162;-62
2023/12/15 04:41:17;;;;;;;13.17;11.93;;;;;;;8.94;100.00;9338.50;6185021;23;20240;-63
2023/12/15 04:43:44;;;;;;;12.37;11.37;;;;;;;9.03;100.00;9660.00;6184997;23;20521;-62
2023/12/15 04:46:12;;;;;;;12.20;11.20;;;;;;;9.07;100.00;9980.44;6185168;23;20158;-63
2023/12/15 04:48:39;;;;;;;11.50;10.67;;;;;;;8.83;100.00;13812.59;6185394;23;20162;-62
2023/12/15 04:51:06;;;;;;;10.73;10.03;;;;;;;8.67;100.00;12256.75;6185191;23;20184;-63
2023/12/15 04:53:33;;;;;;;11.17;10.20;;;;;;;8.81;100.00;10614.06;6184985;23;20277;-62
2023/12/15 04:56:00;;;;;;;10.77;9.97;;;;;;;8.83;100.00;12645.56;6185662;23;20162;-61
2023/12/15 04:58:28;;;;;;;10.83;10.00;;;;;;;8.89;100.00;13174.47;6185351;23;20158;-62
2023/12/15 05:00:55;;;;;;;9.43;8.93;;;;;;;8.90;100.00;13969.56;6184953;23;20162;-63
2023/12/15 05:03:22;;;;;;;9.30;8.60;;;;;;;8.94;100.00;14545.78;6184414;23;20162;-62
2023/12/15 05:05:48;;;;;;;6.57;6.27;;;;;;;8.58;100.00;20041.16;6184902;23;20166;-62
2023/12/15 05:08:15;;;;;;;6.67;6.37;;;;;;;8.67;100.00;16228.47;6185394;23;20486;-62
2023/12/15 05:10:42;;;;;;;6.67;6.37;;;;;;;8.67;100.00;14540.75;6185181;23;20478;-62
2023/12/15 05:13:09;;;;;;;5.20;5.00;;;;;;;8.66;100.00;14058.09;6184915;23;20470;-61
2023/12/15 05:15:37;;;;;;;5.07;4.87;;;;;;;8.49;100.00;16077.75;6184933;23;20593;-63
2023/12/15 05:18:04;;;;;;;5.30;5.10;;;;;;;8.37;100.00;13480.41;6185174;23;20158;-61
2023/12/15 05:20:36;;;;;;;5.23;5.03;;;;;;;8.31;100.00;11241.78;6184807;23;20501;-62
2023/12/15 05:23:03;;;;;;;5.47;5.20;;;;;;;8.35;100.00;10923.28;6184822;23;20162;-63
2023/12/15 05:25:30;;;;;;;5.10;4.80;;;;;;;8.41;100.00;10605.31;6184922;23;20671;-62
2023/12/15 05:27:57;;;;;;;5.03;4.67;;;;;;;8.55;100.00;10288.97;6184616;23;20233;-62
2023/12/15 05:30:24;;;;;;;4.60;4.30;;;;;;;8.60;100.00;10289.94;6185223;23;20158;-62
2023/12/15 05:32:52;;;;;;;4.20;3.70;;;;;;;8.47;100.00;10606.66;6184354;23;20237;-63
2023/12/15 05:35:19;;;;;;;3.53;3.40;;;;;;;8.34;100.00;10603.72;6185064;23;20158;-62
2023/12/15 05:37:45;;;;;;;3.70;3.60;;;;;;;8.12;100.00;11556.91;6184604;23;20241;-63
2023/12/15 05:40:13;;;;;;;3.83;3.63;;;;;;;8.07;100.00;9640.03;6184758;23;20159;-61
2023/12/15 05:42:40;;;;;;;3.30;3.20;;;;;;;8.15;100.00;7727.00;6184684;23;20162;-63
2023/12/15 05:45:08;;;;;;;4.27;4.07;;;;;;;8.09;100.00;7407.03;6185345;23;20209;-63
2023/12/15 05:47:36;;;;;;;3.80;3.50;;;;;;;8.08;100.00;6450.03;6184925;23;20498;-61
2023/12/15 05:50:05;;;;;;;3.20;3.10;;;;;;;8.09;100.00;6769.16;6184580;23;20162;-63
2023/12/15 05:52:32;;;;;;;4.27;4.07;;;;;;;8.02;100.00;7724.69;6184325;23;20237;-62
2023/12/15 05:54:59;;;;;;;3.93;3.73;;;;;;;7.88;100.00;8360.03;6184576;23;20235;-62
2023/12/15 05:57:26;;;;;;;4.93;4.73;;;;;;;7.93;100.00;7085.31;6184691;23;20162;-62
2023/12/15 05:59:53;;;;;;;3.23;3.13;;;;;;;7.64;100.00;8355.72;6184570;23;20158;-63
2023/12/15 06:02:20;;;;;;;3.10;3.00;;;;;;;7.51;100.00;8990.84;6184591;23;20158;-62
2023/12/15 06:04:47;;;;;;;3.90;3.80;;;;;;;7.56;100.00;8673.00;6184354;23;20258;-62
2023/12/15 06:07:15;;;;;;;3.63;3.43;;;;;;;7.58;100.00;8673.28;6184546;23;20236;-63
2023/12/15 06:09:43;;;;;;;3.83;3.53;;;;;;;7.57;100.00;9629.78;6184653;23;20598;-61
2023/12/15 06:12:10;;;;;;;3.90;3.80;;;;;;;7.61;100.00;10268.56;6184607;23;20217;-63
2023/12/15 06:14:37;;;;;;;5.10;4.80;;;;;;;7.59;100.00;10906.03;6183519;23;20158;-62
2023/12/15 06:17:06;;;;;;;4.27;4.07;;;;;;;7.69;100.00;12184.94;6184211;23;20568;-63
2023/12/15 06:19:33;;;;;;;3.83;3.60;;;;;;;7.65;100.00;13141.81;6184375;23;20158;-62
2023/12/15 06:22:00;;;;;;;3.33;3.13;;;;;;;7.65;100.00;13780.47;6183990;23;20166;-62
2023/12/15 06:24:28;;;;;;;5.53;5.33;;;;;;;7.66;100.00;12822.81;6183701;23;20216;-63
2023/12/15 06:26:55;;;;;;;5.63;5.00;;;;;;;7.61;100.00;11544.78;6184580;23;20194;-62
2023/12/15 06:29:22;;;;;;;4.23;4.07;;;;;;;7.54;100.00;14735.44;6184281;23;20158;-62
2023/12/15 06:31:49;;;;;;;3.83;3.67;;;;;;;7.31;100.00;18097.72;6184156;23;20242;-64
2023/12/15 06:34:16;;;;;;;3.83;3.73;;;;;;;7.32;100.00;16325.78;6184313;23;20266;-63
2023/12/15 06:36:43;;;;;;;3.50;3.40;;;;;;;7.25;100.00;16707.84;6183971;23;20178;-62
2023/12/15 06:39:10;;;;;;;4.30;4.00;;;;;;;7.33;100.00;15842.16;6183733;23;20636;-64
2023/12/15 06:41:38;;;;;;;4.50;4.20;;;;;;;7.19;100.00;16571.16;6184466;23;20158;-63
2023/12/15 06:44:06;;;;;;;4.50;4.30;;;;;;;7.54;100.00;17281.56;6184829;23;20178;-63
2023/12/15 06:46:36;;;;;;;4.43;4.23;;;;;;;7.44;100.00;16898.75;6184331;23;20169;-61
2023/12/15 06:49:03;;;;;;;4.60;4.30;;;;;;;7.29;100.00;16005.41;6183961;23;20162;-63
2023/12/15 06:51:30;;;;;;;4.70;4.50;;;;;;;7.37;100.00;17103.63;6183932;23;20174;-61
2023/12/15 06:53:57;;;;;;;4.17;4.03;;;;;;;7.20;100.00;19492.34;6183570;23;20280;-61
2023/12/15 06:56:24;;;;;;;4.23;4.03;;;;;;;7.24;100.00;17061.88;6184008;23;20197;-62
2023/12/15 06:58:53;;;;;;;7.17;6.57;;;;;;;7.17;100.00;17301.66;6183467;23;20173;-62
2023/12/15 07:01:19;;;;;;;6.97;6.43;;;;;;;7.14;100.00;16255.34;6183555;23;20185;-62
2023/12/15 07:03:48;;;;;;;7.20;6.53;;;;;;;7.06;100.00;16429.91;6183415;23;20555;-62
2023/12/15 07:06:15;;;;;;;10.37;5.97;;;;;;;7.29;100.00;17957.22;6182991;23;20158;-62
2023/12/15 07:08:42;;;;;;;5.93;5.53;;;;;;;7.25;100.00;21032.91;6183241;23;20249;-61
2023/12/15 07:11:09;;;;;;;6.77;6.47;;;;;;;7.24;100.00;21450.03;6182979;23;20158;-62
2023/12/15 07:13:36;;;;;;;6.37;6.07;;;;;;;7.15;100.00;19038.53;6183158;23;20174;-62
2023/12/15 07:16:05;;;;;;;5.37;5.17;;;;;;;7.15;100.00;22410.84;6183841;23;20154;-62
2023/12/15 07:18:33;;;;;;;5.60;5.40;;;;;;;7.09;100.00;27508.31;6183518;23;20624;-62
2023/12/15 07:20:59;;;;;;;5.10;4.90;;;;;;;7.05;100.00;27676.50;6182993;23;20177;-61
2023/12/15 07:23:26;;;;;;;6.10;5.80;;;;;;;6.97;100.00;26418.63;6184999;23;20244;-60
2023/12/15 07:25:53;;;;;;;6.40;6.00;;;;;;;6.90;100.00;24582.44;6183380;23;20512;-59
2023/12/15 07:28:20;;;;;;;5.13;4.93;;;;;;;6.92;100.00;24418.09;6185154;23;20163;-59
2023/12/15 07:30:47;;;;;;;5.70;5.27;;;;;;;6.86;100.00;24163.38;6185386;23;20158;-59
2023/12/15 07:33:16;;;;;;;5.60;5.20;;;;;;;6.94;100.00;23259.19;6185610;23;20640;-59
2023/12/15 07:35:42;;;;;;;6.27;5.83;;;;;;;7.06;100.00;22197.38;6185461;23;20154;-59
2023/12/15 07:38:09;;;;;;;6.43;6.13;;;;;;;7.12;100.00;22247.16;6185868;23;20521;-59
2023/12/15 07:40:36;;;;;;;7.27;6.27;;;;;;;7.28;100.00;22268.81;6185351;23;20169;-60
2023/12/15 07:43:03;;;;;;;5.47;5.20;;;;;;;7.21;100.00;26005.06;6184841;23;20158;-59
2023/12/15 07:45:30;;;;;;;6.77;6.30;;;;;;;7.16;100.00;26960.91;6184933;23;20736;-59
2023/12/15 07:47:58;;;;;;;5.67;5.47;;;;;;;7.17;100.00;26135.75;6185132;23;20241;-60
2023/12/15 07:50:26;;;;;;;4.73;4.53;;;;;;;7.10;100.00;25379.38;6185028;23;20164;-62
2023/12/15 07:52:53;;;;;;;6.50;6.20;;;;;;;6.83;100.00;24339.50;6185755;23;20194;-60
2023/12/15 07:55:20;;;;;;;6.77;6.30;;;;;;;6.79;100.00;23542.97;6185142;23;20170;-60
2023/12/15 07:57:48;;;;;;;7.83;7.33;;;;;;;6.68;100.00;20513.81;6185180;23;20154;-61
2023/12/15 08:00:15;;;;;;;9.17;8.43;;;;;;;6.73;100.00;20977.78;6185157;23;20242;-61
2023/12/15 08:02:44;;;;;;;9.13;8.50;;;;;;;6.73;100.00;20101.56;6185297;23;20237;-60
2023/12/15 08:05:11;;;;;;;5.70;5.30;;;;;;;6.74;100.00;21322.53;6185001;23;20182;-60
2023/12/15 08:07:40;;;;;;;5.13;4.87;;;;;;;6.67;100.00;23237.94;6185215;23;20242;-59
2023/12/15 08:10:08;;;;;;;7.23;5.60;;;;;;;6.72;100.00;21606.41;6185365;23;20660;-60
2023/12/15 08:12:35;;;;;;;5.20;5.00;;;;;;;6.66;100.00;21618.94;6185160;23;20197;-61
2023/12/15 08:15:02;;;;;;;6.10;5.70;;;;;;;6.98;100.00;21981.47;6184854;23;20166;-60
2023/12/15 08:17:29;;;;;;;5.23;4.93;;;;;;;7.03;100.00;26066.28;6184707;23;20170;-60
2023/12/15 08:19:56;;;;;;;5.60;5.40;;;;;;;6.89;100.00;25077.00;6184714;23;20162;-59
2023/12/15 08:22:22;;;;;;;5.30;5.10;;;;;;;7.10;100.00;30137.78;6184651;23;20158;-60
2023/12/15 08:24:51;;;;;;;5.93;5.63;;;;;;;7.08;100.00;28243.50;6184916;23;20314;-60
2023/12/15 08:27:20;;;;;;;8.20;6.70;;;;;;;7.18;100.00;23094.56;6185107;23;20557;-59
2023/12/15 08:29:48;;;;;;;5.97;5.67;;;;;;;7.19;100.00;20835.66;6185136;23;20220;-60
2023/12/15 08:32:15;;;;;;;4.77;4.57;;;;;;;7.16;100.00;25454.50;6184563;23;20213;-60
2023/12/15 08:34:42;;;;;;;4.57;4.40;;;;;;;7.13;100.00;23729.94;6184418;23;20158;-61
2023/12/15 08:37:09;;;;;;;5.23;5.03;;;;;;;7.12;100.00;20350.81;6184803;23;20493;-61
2023/12/15 08:39:35;;;;;;;5.60;5.20;;;;;;;7.20;100.00;20248.97;6184403;23;20475;-61
2023/12/15 08:42:04;;;;;;;6.43;5.93;;;;;;;7.27;100.00;16613.81;6184688;23;20162;-60
2023/12/15 08:44:31;;;;;;;4.80;4.50;;;;;;;7.20;100.00;17335.09;6184485;23;20242;-61
2023/12/15 08:46:58;;;;;;;5.40;5.10;;;;;;;7.20;100.00;15683.44;6185040;23;20166;-59
2023/12/15 08:49:26;;;;;;;4.23;3.97;;;;;;;7.10;100.00;14403.44;6184854;23;20173;-59
2023/12/15 08:51:53;;;;;;;4.07;3.80;;;;;;;6.95;100.00;13442.28;6184456;23;20614;-58
2023/12/15 08:54:20;;;;;;;4.20;4.00;;;;;;;7.01;100.00;12486.94;6184420;23;20620;-59
2023/12/15 08:56:47;;;;;;;4.50;4.30;;;;;;;7.11;100.00;10576.34;6184343;23;20237;-59
2023/12/15 08:59:15;;;;;;;4.10;3.90;;;;;;;7.11;100.00;10895.25;6184833;23;20158;-59
2023/12/15 09:01:42;;;;;;;3.57;3.47;;;;;;;7.03;100.00;11212.19;6184600;23;20495;-60
2023/12/15 09:04:09;;;;;;;4.17;3.77;;;;;;;7.04;100.00;10256.06;6184671;23;20501;-59
2023/12/15 09:06:36;;;;;;;4.33;3.97;;;;;;;7.19;100.00;8028.69;6184380;23;20186;-59
2023/12/15 09:09:03;;;;;;;4.13;3.93;;;;;;;7.24;100.00;7392.50;6184579;23;20241;-59
2023/12/15 09:11:30;;;;;;;3.73;3.43;;;;;;;7.24;100.00;9304.28;6184653;23;20223;-58
2023/12/15 09:13:57;;;;;;;3.60;3.50;;;;;;;7.32;100.00;10262.19;6184170;23;20166;-58
2023/12/15 09:16:25;;;;;;;4.00;3.77;;;;;;;7.35;100.00;14410.75;6184342;23;20161;-58
2023/12/15 09:18:52;;;;;;;3.97;3.77;;;;;;;7.24;100.00;18879.31;6184414;23;20582;-59
2023/12/15 09:21:19;;;;;;;3.73;3.53;;;;;;;7.21;100.00;21116.47;6184002;23;20204;-58
2023/12/15 09:23:46;;;;;;;3.97;3.87;;;;;;;7.22;100.00;16961.56;6184063;23;20233;-59
2023/12/15 09:26:13;;;;;;;4.00;3.70;;;;;;;7.37;100.00;14730.47;6184115;23;20178;-59
2023/12/15 09:28:40;;;;;;;5.73;3.67;;;;;;;7.25;100.00;18240.44;6183822;23;20162;-59
2023/12/15 09:31:07;;;;;;;3.40;3.23;;;;;;;7.30;100.00;22399.63;6184030;23;20173;-58
2023/12/15 09:33:35;;;;;;;3.27;3.17;;;;;;;7.29;100.00;24960.41;6184295;23;20173;-58
2023/12/15 09:36:03;;;;;;;3.33;3.17;;;;;;;7.47;100.00;21126.44;6184240;23;20169;-59
2023/12/15 09:38:30;;;;;;;3.27;3.17;;;;;;;7.51;100.00;21768.25;6184447;23;20598;-58
2023/12/15 09:40:57;;;;;;;3.50;3.40;;;;;;;7.47;100.00;29776.75;6184278;23;20586;-58
2023/12/15 09:43:24;;;;;;;3.53;3.23;;;;;;;7.41;100.00;28170.31;6183834;23;20162;-59
2023/12/15 09:45:59;;;;;;;4.17;3.77;;;;;;;7.34;100.00;26243.81;6184696;23;20193;-59
2023/12/15 09:48:27;;;;;;;8.33;7.60;;;;;;;7.24;100.00;23357.38;6184852;23;20180;-58
2023/12/15 09:50:57;;;;;;;7.07;6.67;;;;;;;7.17;100.00;17279.19;6183505;23;20163;-59
2023/12/15 09:53:25;;;;;;;4.50;4.27;;;;;;;7.06;100.00;15359.75;6183657;23;20276;-58
2023/12/15 09:55:52;;;;;;;3.43;3.33;;;;;;;7.02;100.00;11849.44;6183638;23;20159;-60
2023/12/15 09:58:20;;;;;;;4.63;4.20;;;;;;;6.96;100.00;11529.19;6183722;23;20163;-58
2023/12/15 10:00:48;;;;;;;3.27;3.13;;;;;;;6.97;100.00;10573.31;6183967;23;20164;-58
2023/12/15 10:03:15;;;;;;;5.30;3.80;;;;;;;6.88;100.00;10571.44;6183647;23;20196;-60
2023/12/15 10:05:43;;;;;;;3.27;3.17;;;;;;;6.91;100.00;10890.66;6183473;23;20182;-59
2023/12/15 10:08:11;;;;;;;4.00;3.80;;;;;;;6.94;100.00;13760.97;6183662;23;20165;-58
2023/12/15 10:10:38;;;;;;;5.00;4.67;;;;;;;6.91;100.00;11528.13;6183513;23;20237;-58
2023/12/15 10:13:05;;;;;;;4.00;3.80;;;;;;;6.95;100.00;10891.59;6183626;23;20248;-60
2023/12/15 10:15:32;;;;;;;3.00;2.90;;;;;;;6.98;100.00;11529.78;6183949;23;20155;-58
2023/12/15 10:17:59;;;;;;;3.63;3.50;;;;;;;6.98;100.00;14400.00;6183509;23;20162;-58
2023/12/15 10:20:26;;;;;;;3.97;3.67;;;;;;;6.85;100.00;20782.56;6184086;23;20158;-58
2023/12/15 10:23:01;;;;;;;4.53;4.17;;;;;;;6.87;100.00;23341.34;6183438;23;20246;-58
2023/12/15 10:25:30;;;;;;;4.13;3.83;;;;;;;6.80;100.00;30702.91;6183421;23;20177;-58
2023/12/15 10:27:57;;;;;;;3.77;3.57;;;;;;;6.72;100.00;33583.91;6183453;23;20220;-58
2023/12/15 10:30:24;;;;;;;3.47;3.37;;;;;;;6.80;100.00;42262.44;6183371;23;20158;-58
2023/12/15 10:32:53;;;;;;;4.17;3.97;;;;;;;6.63;100.00;38072.03;6183655;23;20162;-58
2023/12/15 10:35:22;;;;;;;3.70;3.57;;;;;;;6.72;100.00;45796.03;6183823;23;20538;-59
2023/12/15 10:37:49;;;;;;;4.50;4.20;;;;;;;6.72;100.00;38720.63;6183326;23;20221;-59
2023/12/15 10:40:16;;;;;;;4.50;4.30;;;;;;;6.83;100.00;26219.72;6183690;23;20160;-58
2023/12/15 10:42:46;;;;;;;5.13;4.83;;;;;;;6.75;100.00;24935.53;6183315;23;20158;-60
2023/12/15 10:45:14;;;;;;;7.70;7.00;;;;;;;6.87;100.00;23341.53;6183334;23;20265;-59
2023/12/15 10:47:41;;;;;;;4.90;4.60;;;;;;;6.82;100.00;19503.25;6183456;23;20162;-58
2023/12/15 10:50:10;;;;;;;5.43;5.23;;;;;;;7.08;100.00;18234.69;6183476;23;20258;-59
2023/12/15 10:52:37;;;;;;;6.80;6.50;;;;;;;7.06;100.00;15679.13;6183432;23;20692;-58
2023/12/15 10:55:06;;;;;;;6.10;5.70;;;;;;;7.18;100.00;15044.13;6183330;23;20170;-59
2023/12/15 10:57:33;;;;;;;7.93;7.43;;;;;;;7.13;100.00;17597.44;6182992;23;20166;-58
2023/12/15 11:00:04;;;;;;;6.50;6.10;;;;;;;6.97;100.00;23345.44;6183174;23;20213;-59
2023/12/15 11:02:33;;;;;;;6.27;5.97;;;;;;;6.87;100.00;24301.09;6183407;23;20182;-59
2023/12/15 11:05:01;;;;;;;8.10;7.50;;;;;;;6.86;100.00;21102.78;6182903;23;20165;-61
2023/12/15 11:07:29;;;;;;;7.40;6.70;;;;;;;7.17;100.00;19196.38;6183222;23;20642;-59
2023/12/15 11:09:57;;;;;;;6.30;6.00;;;;;;;6.98;100.00;23986.03;6183164;23;20169;-59
2023/12/15 11:12:30;;;;;;;5.67;5.37;;;;;;;6.83;100.00;40335.22;6183624;23;20162;-58
2023/12/15 11:15:04;;;;;;;6.47;6.17;;;;;;;6.34;100.00;36448.09;6184665;23;20162;-56
2023/12/15 11:17:33;;;;;;;6.10;5.70;;;;;;;6.39;100.00;41267.66;6184014;23;20188;-59
2023/12/15 11:20:06;;;;;;;6.60;6.20;;;;;;;6.33;100.00;25875.81;6184253;23;20186;-58
2023/12/15 11:22:58;;;;;;;7.43;6.70;;;;;;;6.49;100.00;14705.06;6184336;23;20598;-58
2023/12/15 11:25:30;;;;;;;6.20;5.90;;;;;;;6.59;100.00;10883.34;6184173;23;20182;-58
2023/12/15 11:28:08;;;;;;;8.00;6.60;;;;;;;6.51;100.00;15343.44;6183627;23;20162;-59
2023/12/15 11:30:39;;;;;;;6.63;6.23;;;;;;;6.58;100.00;15983.34;6183047;23;20165;-58